sensor_id;sensor_type;location;lat;lon;timestamp;P1;durP1;ratioP1;P2;durP2;ratioP2
20776;SDS011;10548;47.504;8.248;2023-09-19T00:01:45;4.37;;;2.07;;
20776;SDS011;10548;47.504;8.248;2023-09-19T00:04:12;5.07;;;2.07;;
20776;SDS011;10548;47.504;8.248;2023-09-19T00:06:41;3.80;;;1.70;;
20776;SDS011;10548;47.504;8.248;2023-09-19T00:09:09;6.50;;;1.97;;
20776;SDS011;10548;47.504;8.248;2023-09-19T00:11:37;7.37;;;2.20;;
20776;SDS011;10548;47.504;8.248;2023-09-19T00:14:05;10.23;;;2.30;;
20776;SDS011;10548;47.504;8.248;2023-09-19T00:16:34;8.27;;;1.90;;
20776;SDS011;10548;47.504;8.248;2023-09-19T00:19:02;5.10;;;2.00;;
20776;SDS011;10548;47.504;8.248;2023-09-19T00:21:31;8.73;;;2.83;;
20776;SDS011;10548;47.504;8.248;2023-09-19T00:23:58;5.60;;;2.30;;
20776;SDS011;10548;47.504;8.248;2023-09-19T00:26:25;6.87;;;3.13;;
20776;SDS011;10548;47.504;8.248;2023-09-19T00:28:57;3.80;;;1.80;;
20776;SDS011;10548;47.504;8.248;2023-09-19T00:31:26;6.70;;;2.83;;
20776;SDS011;10548;47.504;8.248;2023-09-19T00:33:53;6.10;;;2.60;;
20776;SDS011;10548;47.504;8.248;2023-09-19T00:36:20;6.67;;;2.80;;
20776;SDS011;10548;47.504;8.248;2023-09-19T00:38:47;5.00;;;2.20;;
20776;SDS011;10548;47.504;8.248;2023-09-19T00:41:15;4.83;;;2.37;;
20776;SDS011;10548;47.504;8.248;2023-09-19T00:43:42;5.57;;;2.47;;
20776;SDS011;10548;47.504;8.248;2023-09-19T00:46:09;5.93;;;2.77;;
20776;SDS011;10548;47.504;8.248;2023-09-19T00:48:40;9.47;;;2.80;;
20776;SDS011;10548;47.504;8.248;2023-09-19T00:51:10;3.93;;;2.50;;
20776;SDS011;10548;47.504;8.248;2023-09-19T00:53:41;4.83;;;2.77;;
20776;SDS011;10548;47.504;8.248;2023-09-19T00:56:13;10.23;;;2.70;;
20776;SDS011;10548;47.504;8.248;2023-09-19T00:58:47;3.17;;;2.10;;
20776;SDS011;10548;47.504;8.248;2023-09-19T01:01:14;5.30;;;2.57;;
20776;SDS011;10548;47.504;8.248;2023-09-19T01:03:42;4.53;;;2.37;;
20776;SDS011;10548;47.504;8.248;2023-09-19T01:06:12;6.50;;;2.33;;
20776;SDS011;10548;47.504;8.248;2023-09-19T01:08:39;7.17;;;2.73;;
20776;SDS011;10548;47.504;8.248;2023-09-19T01:17:06;4.30;;;2.33;;
20776;SDS011;10548;47.504;8.248;2023-09-19T01:19:58;4.53;;;2.40;;
20776;SDS011;10548;47.504;8.248;2023-09-19T01:23:01;8.03;;;2.93;;
20776;SDS011;10548;47.504;8.248;2023-09-19T01:29:13;4.57;;;2.33;;
20776;SDS011;10548;47.504;8.248;2023-09-19T01:32:06;4.20;;;2.30;;
20776;SDS011;10548;47.504;8.248;2023-09-19T01:34:55;4.17;;;2.07;;
20776;SDS011;10548;47.504;8.248;2023-09-19T01:37:25;3.10;;;2.20;;
20776;SDS011;10548;47.504;8.248;2023-09-19T01:40:03;3.40;;;2.00;;
20776;SDS011;10548;47.504;8.248;2023-09-19T01:42:57;6.40;;;2.07;;
20776;SDS011;10548;47.504;8.248;2023-09-19T01:46:16;4.27;;;2.30;;
20776;SDS011;10548;47.504;8.248;2023-09-19T01:48:41;5.27;;;1.93;;
20776;SDS011;10548;47.504;8.248;2023-09-19T01:51:20;2.00;;;1.80;;
20776;SDS011;10548;47.504;8.248;2023-09-19T01:54:03;3.67;;;2.23;;
20776;SDS011;10548;47.504;8.248;2023-09-19T01:56:42;6.93;;;2.27;;
20776;SDS011;10548;47.504;8.248;2023-09-19T01:59:17;4.27;;;2.33;;
20776;SDS011;10548;47.504;8.248;2023-09-19T02:01:51;8.03;;;2.47;;
20776;SDS011;10548;47.504;8.248;2023-09-19T02:04:20;2.70;;;1.87;;
20776;SDS011;10548;47.504;8.248;2023-09-19T02:06:47;4.90;;;2.00;;
20776;SDS011;10548;47.504;8.248;2023-09-19T02:09:14;5.93;;;2.17;;
20776;SDS011;10548;47.504;8.248;2023-09-19T02:11:42;3.63;;;1.77;;
20776;SDS011;10548;47.504;8.248;2023-09-19T02:14:09;5.73;;;2.00;;
20776;SDS011;10548;47.504;8.248;2023-09-19T02:16:36;4.63;;;1.80;;
20776;SDS011;10548;47.504;8.248;2023-09-19T02:19:04;2.50;;;1.80;;
20776;SDS011;10548;47.504;8.248;2023-09-19T02:21:32;3.83;;;1.90;;
20776;SDS011;10548;47.504;8.248;2023-09-19T02:23:59;4.80;;;2.37;;
20776;SDS011;10548;47.504;8.248;2023-09-19T02:26:26;2.97;;;1.67;;
20776;SDS011;10548;47.504;8.248;2023-09-19T02:28:54;3.57;;;2.00;;
20776;SDS011;10548;47.504;8.248;2023-09-19T02:31:21;2.70;;;1.70;;
20776;SDS011;10548;47.504;8.248;2023-09-19T02:33:49;3.40;;;1.83;;
20776;SDS011;10548;47.504;8.248;2023-09-19T02:36:16;5.27;;;2.00;;
20776;SDS011;10548;47.504;8.248;2023-09-19T02:38:44;4.10;;;1.73;;
20776;SDS011;10548;47.504;8.248;2023-09-19T02:41:11;5.33;;;1.73;;
20776;SDS011;10548;47.504;8.248;2023-09-19T02:43:38;5.00;;;1.90;;
20776;SDS011;10548;47.504;8.248;2023-09-19T02:46:06;6.57;;;2.17;;
20776;SDS011;10548;47.504;8.248;2023-09-19T02:48:33;4.17;;;1.80;;
20776;SDS011;10548;47.504;8.248;2023-09-19T02:51:02;5.00;;;1.93;;
20776;SDS011;10548;47.504;8.248;2023-09-19T02:53:31;3.43;;;1.50;;
20776;SDS011;10548;47.504;8.248;2023-09-19T02:55:58;2.50;;;1.70;;
20776;SDS011;10548;47.504;8.248;2023-09-19T02:58:25;6.07;;;2.00;;
20776;SDS011;10548;47.504;8.248;2023-09-19T03:00:54;4.00;;;2.07;;
20776;SDS011;10548;47.504;8.248;2023-09-19T03:03:23;6.47;;;2.40;;
20776;SDS011;10548;47.504;8.248;2023-09-19T03:05:50;6.77;;;2.27;;
20776;SDS011;10548;47.504;8.248;2023-09-19T03:08:21;5.83;;;1.97;;
20776;SDS011;10548;47.504;8.248;2023-09-19T03:10:48;3.90;;;1.90;;
20776;SDS011;10548;47.504;8.248;2023-09-19T03:13:16;6.03;;;1.80;;
20776;SDS011;10548;47.504;8.248;2023-09-19T03:15:43;5.47;;;2.00;;
20776;SDS011;10548;47.504;8.248;2023-09-19T03:18:16;3.17;;;1.50;;
20776;SDS011;10548;47.504;8.248;2023-09-19T03:20:43;6.30;;;2.17;;
20776;SDS011;10548;47.504;8.248;2023-09-19T03:23:11;4.33;;;1.70;;
20776;SDS011;10548;47.504;8.248;2023-09-19T03:25:39;3.70;;;1.60;;
20776;SDS011;10548;47.504;8.248;2023-09-19T03:28:07;2.80;;;1.77;;
20776;SDS011;10548;47.504;8.248;2023-09-19T03:30:34;3.03;;;1.80;;
20776;SDS011;10548;47.504;8.248;2023-09-19T03:33:03;3.30;;;1.40;;
20776;SDS011;10548;47.504;8.248;2023-09-19T03:35:32;3.37;;;2.13;;
20776;SDS011;10548;47.504;8.248;2023-09-19T03:38:01;5.23;;;1.43;;
20776;SDS011;10548;47.504;8.248;2023-09-19T03:40:29;2.93;;;1.57;;
20776;SDS011;10548;47.504;8.248;2023-09-19T03:43:00;4.13;;;1.70;;
20776;SDS011;10548;47.504;8.248;2023-09-19T03:45:27;3.13;;;1.53;;
20776;SDS011;10548;47.504;8.248;2023-09-19T03:47:54;2.77;;;1.43;;
20776;SDS011;10548;47.504;8.248;2023-09-19T03:50:23;2.73;;;1.53;;
20776;SDS011;10548;47.504;8.248;2023-09-19T03:52:55;3.83;;;1.77;;
20776;SDS011;10548;47.504;8.248;2023-09-19T03:55:23;3.50;;;1.47;;
20776;SDS011;10548;47.504;8.248;2023-09-19T03:57:51;3.67;;;1.53;;
20776;SDS011;10548;47.504;8.248;2023-09-19T04:00:19;3.47;;;1.73;;
20776;SDS011;10548;47.504;8.248;2023-09-19T04:02:48;3.57;;;1.57;;
20776;SDS011;10548;47.504;8.248;2023-09-19T04:05:16;4.70;;;1.83;;
20776;SDS011;10548;47.504;8.248;2023-09-19T04:07:44;4.40;;;1.50;;
20776;SDS011;10548;47.504;8.248;2023-09-19T04:10:12;3.87;;;1.87;;
20776;SDS011;10548;47.504;8.248;2023-09-19T04:12:49;4.80;;;1.80;;
20776;SDS011;10548;47.504;8.248;2023-09-19T04:15:18;6.67;;;1.80;;
20776;SDS011;10548;47.504;8.248;2023-09-19T04:17:46;2.97;;;1.40;;
20776;SDS011;10548;47.504;8.248;2023-09-19T04:20:13;2.33;;;1.40;;
20776;SDS011;10548;47.504;8.248;2023-09-19T04:22:40;3.67;;;1.80;;
20776;SDS011;10548;47.504;8.248;2023-09-19T04:25:08;3.67;;;1.67;;
20776;SDS011;10548;47.504;8.248;2023-09-19T04:27:35;2.43;;;1.50;;
20776;SDS011;10548;47.504;8.248;2023-09-19T04:30:03;3.50;;;1.90;;
20776;SDS011;10548;47.504;8.248;2023-09-19T04:32:36;3.63;;;1.53;;
20776;SDS011;10548;47.504;8.248;2023-09-19T04:35:09;4.83;;;1.70;;
20776;SDS011;10548;47.504;8.248;2023-09-19T04:37:40;4.77;;;1.40;;
20776;SDS011;10548;47.504;8.248;2023-09-19T04:40:11;3.73;;;1.83;;
20776;SDS011;10548;47.504;8.248;2023-09-19T04:42:44;2.80;;;1.70;;
20776;SDS011;10548;47.504;8.248;2023-09-19T04:45:12;3.80;;;1.67;;
20776;SDS011;10548;47.504;8.248;2023-09-19T04:47:39;2.17;;;1.60;;
20776;SDS011;10548;47.504;8.248;2023-09-19T04:50:07;3.07;;;1.60;;
20776;SDS011;10548;47.504;8.248;2023-09-19T04:52:42;2.93;;;1.53;;
20776;SDS011;10548;47.504;8.248;2023-09-19T04:55:14;4.63;;;1.73;;
20776;SDS011;10548;47.504;8.248;2023-09-19T04:57:45;2.90;;;1.60;;
20776;SDS011;10548;47.504;8.248;2023-09-19T05:00:17;3.57;;;1.70;;
20776;SDS011;10548;47.504;8.248;2023-09-19T05:02:50;2.70;;;1.50;;
20776;SDS011;10548;47.504;8.248;2023-09-19T05:05:18;5.20;;;1.70;;
20776;SDS011;10548;47.504;8.248;2023-09-19T05:07:46;5.97;;;2.07;;
20776;SDS011;10548;47.504;8.248;2023-09-19T05:10:14;3.33;;;1.60;;
20776;SDS011;10548;47.504;8.248;2023-09-19T05:12:42;2.43;;;1.50;;
20776;SDS011;10548;47.504;8.248;2023-09-19T05:15:12;3.60;;;1.70;;
20776;SDS011;10548;47.504;8.248;2023-09-19T05:17:41;4.80;;;1.83;;
20776;SDS011;10548;47.504;8.248;2023-09-19T05:20:08;2.53;;;1.20;;
20776;SDS011;10548;47.504;8.248;2023-09-19T05:22:57;2.90;;;1.60;;
20776;SDS011;10548;47.504;8.248;2023-09-19T05:25:28;3.87;;;1.60;;
20776;SDS011;10548;47.504;8.248;2023-09-19T05:27:56;5.23;;;1.97;;
20776;SDS011;10548;47.504;8.248;2023-09-19T05:30:25;2.03;;;1.50;;
20776;SDS011;10548;47.504;8.248;2023-09-19T05:32:55;2.47;;;1.57;;
20776;SDS011;10548;47.504;8.248;2023-09-19T05:35:24;4.23;;;1.70;;
20776;SDS011;10548;47.504;8.248;2023-09-19T05:37:51;2.20;;;1.53;;
20776;SDS011;10548;47.504;8.248;2023-09-19T05:40:19;2.27;;;1.50;;
20776;SDS011;10548;47.504;8.248;2023-09-19T05:42:46;3.73;;;1.90;;
20776;SDS011;10548;47.504;8.248;2023-09-19T05:45:14;3.20;;;1.50;;
20776;SDS011;10548;47.504;8.248;2023-09-19T05:47:45;6.13;;;1.63;;
20776;SDS011;10548;47.504;8.248;2023-09-19T05:50:13;5.90;;;1.60;;
20776;SDS011;10548;47.504;8.248;2023-09-19T05:52:41;2.70;;;1.40;;
20776;SDS011;10548;47.504;8.248;2023-09-19T05:55:09;2.40;;;1.40;;
20776;SDS011;10548;47.504;8.248;2023-09-19T05:57:37;4.47;;;1.37;;
20776;SDS011;10548;47.504;8.248;2023-09-19T06:00:09;2.37;;;1.40;;
20776;SDS011;10548;47.504;8.248;2023-09-19T06:02:37;2.77;;;1.43;;
20776;SDS011;10548;47.504;8.248;2023-09-19T06:05:05;4.03;;;1.90;;
20776;SDS011;10548;47.504;8.248;2023-09-19T06:07:33;3.87;;;1.70;;
20776;SDS011;10548;47.504;8.248;2023-09-19T06:10:03;3.27;;;1.63;;
20776;SDS011;10548;47.504;8.248;2023-09-19T06:12:38;4.17;;;1.90;;
20776;SDS011;10548;47.504;8.248;2023-09-19T06:15:06;9.60;;;2.17;;
20776;SDS011;10548;47.504;8.248;2023-09-19T06:17:39;4.50;;;1.73;;
20776;SDS011;10548;47.504;8.248;2023-09-19T06:20:06;4.20;;;1.30;;
20776;SDS011;10548;47.504;8.248;2023-09-19T06:22:44;2.20;;;1.30;;
20776;SDS011;10548;47.504;8.248;2023-09-19T06:25:13;5.93;;;1.80;;
20776;SDS011;10548;47.504;8.248;2023-09-19T06:27:50;4.83;;;2.03;;
20776;SDS011;10548;47.504;8.248;2023-09-19T06:30:21;4.13;;;1.83;;
20776;SDS011;10548;47.504;8.248;2023-09-19T06:32:57;3.17;;;1.50;;
20776;SDS011;10548;47.504;8.248;2023-09-19T06:35:25;4.77;;;1.90;;
20776;SDS011;10548;47.504;8.248;2023-09-19T06:39:42;2.47;;;1.63;;
20776;SDS011;10548;47.504;8.248;2023-09-19T06:42:09;3.43;;;1.40;;
20776;SDS011;10548;47.504;8.248;2023-09-19T06:45:53;3.53;;;1.73;;
20776;SDS011;10548;47.504;8.248;2023-09-19T06:48:21;3.77;;;1.90;;
20776;SDS011;10548;47.504;8.248;2023-09-19T06:50:48;4.57;;;1.83;;
20776;SDS011;10548;47.504;8.248;2023-09-19T06:53:15;4.33;;;1.60;;
20776;SDS011;10548;47.504;8.248;2023-09-19T06:55:43;5.50;;;2.00;;
20776;SDS011;10548;47.504;8.248;2023-09-19T06:58:11;7.27;;;1.70;;
20776;SDS011;10548;47.504;8.248;2023-09-19T07:00:38;5.13;;;2.10;;
20776;SDS011;10548;47.504;8.248;2023-09-19T07:03:06;3.93;;;2.20;;
20776;SDS011;10548;47.504;8.248;2023-09-19T07:05:39;3.57;;;1.80;;
20776;SDS011;10548;47.504;8.248;2023-09-19T07:08:07;4.47;;;1.87;;
20776;SDS011;10548;47.504;8.248;2023-09-19T07:10:34;3.47;;;1.80;;
20776;SDS011;10548;47.504;8.248;2023-09-19T07:13:05;4.77;;;1.40;;
20776;SDS011;10548;47.504;8.248;2023-09-19T07:15:36;2.70;;;1.93;;
20776;SDS011;10548;47.504;8.248;2023-09-19T07:18:13;6.10;;;1.97;;
20776;SDS011;10548;47.504;8.248;2023-09-19T07:20:46;8.33;;;1.50;;
20776;SDS011;10548;47.504;8.248;2023-09-19T07:23:17;2.43;;;1.63;;
20776;SDS011;10548;47.504;8.248;2023-09-19T07:25:45;4.77;;;1.63;;
20776;SDS011;10548;47.504;8.248;2023-09-19T07:28:12;2.97;;;1.70;;
20776;SDS011;10548;47.504;8.248;2023-09-19T07:30:40;3.43;;;1.80;;
20776;SDS011;10548;47.504;8.248;2023-09-19T07:33:08;2.97;;;1.53;;
20776;SDS011;10548;47.504;8.248;2023-09-19T07:35:38;4.03;;;1.70;;
20776;SDS011;10548;47.504;8.248;2023-09-19T07:38:09;3.90;;;1.80;;
20776;SDS011;10548;47.504;8.248;2023-09-19T07:40:38;4.30;;;1.40;;
20776;SDS011;10548;47.504;8.248;2023-09-19T07:43:06;3.97;;;1.97;;
20776;SDS011;10548;47.504;8.248;2023-09-19T07:45:33;2.63;;;1.50;;
20776;SDS011;10548;47.504;8.248;2023-09-19T07:48:03;2.77;;;1.70;;
20776;SDS011;10548;47.504;8.248;2023-09-19T07:50:40;4.17;;;1.50;;
20776;SDS011;10548;47.504;8.248;2023-09-19T07:53:10;3.83;;;1.50;;
20776;SDS011;10548;47.504;8.248;2023-09-19T07:55:40;2.97;;;1.33;;
20776;SDS011;10548;47.504;8.248;2023-09-19T07:58:07;8.07;;;1.80;;
20776;SDS011;10548;47.504;8.248;2023-09-19T08:00:34;2.87;;;1.20;;
20776;SDS011;10548;47.504;8.248;2023-09-19T08:03:02;2.63;;;1.40;;
20776;SDS011;10548;47.504;8.248;2023-09-19T08:05:41;3.40;;;1.70;;
20776;SDS011;10548;47.504;8.248;2023-09-19T08:08:10;3.87;;;1.30;;
20776;SDS011;10548;47.504;8.248;2023-09-19T08:10:41;5.73;;;1.53;;
20776;SDS011;10548;47.504;8.248;2023-09-19T08:13:12;3.13;;;1.50;;
20776;SDS011;10548;47.504;8.248;2023-09-19T08:15:43;15.97;;;1.93;;
20776;SDS011;10548;47.504;8.248;2023-09-19T08:18:11;3.87;;;1.83;;
20776;SDS011;10548;47.504;8.248;2023-09-19T08:20:38;2.80;;;1.47;;
20776;SDS011;10548;47.504;8.248;2023-09-19T08:23:09;6.20;;;1.90;;
20776;SDS011;10548;47.504;8.248;2023-09-19T08:25:36;7.60;;;1.80;;
20776;SDS011;10548;47.504;8.248;2023-09-19T08:28:06;7.03;;;1.40;;
20776;SDS011;10548;47.504;8.248;2023-09-19T08:30:35;2.77;;;1.50;;
20776;SDS011;10548;47.504;8.248;2023-09-19T08:33:04;5.57;;;1.70;;
20776;SDS011;10548;47.504;8.248;2023-09-19T08:35:32;2.73;;;1.30;;
20776;SDS011;10548;47.504;8.248;2023-09-19T08:38:00;1.50;;;1.30;;
20776;SDS011;10548;47.504;8.248;2023-09-19T08:40:31;4.80;;;1.60;;
20776;SDS011;10548;47.504;8.248;2023-09-19T08:43:00;3.13;;;1.40;;
20776;SDS011;10548;47.504;8.248;2023-09-19T08:45:27;2.40;;;1.40;;
20776;SDS011;10548;47.504;8.248;2023-09-19T08:51:08;4.77;;;1.47;;
20776;SDS011;10548;47.504;8.248;2023-09-19T08:53:42;3.07;;;1.20;;
20776;SDS011;10548;47.504;8.248;2023-09-19T08:56:32;2.50;;;1.60;;
20776;SDS011;10548;47.504;8.248;2023-09-19T08:59:00;5.63;;;1.90;;
20776;SDS011;10548;47.504;8.248;2023-09-19T09:01:38;4.53;;;1.47;;
20776;SDS011;10548;47.504;8.248;2023-09-19T09:04:08;2.47;;;1.37;;
20776;SDS011;10548;47.504;8.248;2023-09-19T09:06:41;4.37;;;1.60;;
20776;SDS011;10548;47.504;8.248;2023-09-19T09:09:11;3.20;;;1.27;;
20776;SDS011;10548;47.504;8.248;2023-09-19T09:11:38;3.97;;;1.50;;
20776;SDS011;10548;47.504;8.248;2023-09-19T09:14:06;4.50;;;1.40;;
20776;SDS011;10548;47.504;8.248;2023-09-19T09:16:34;4.43;;;1.60;;
20776;SDS011;10548;47.504;8.248;2023-09-19T09:19:01;3.87;;;1.40;;
20776;SDS011;10548;47.504;8.248;2023-09-19T09:21:29;3.87;;;1.50;;
20776;SDS011;10548;47.504;8.248;2023-09-19T09:23:56;3.03;;;1.10;;
20776;SDS011;10548;47.504;8.248;2023-09-19T09:26:42;3.90;;;1.60;;
20776;SDS011;10548;47.504;8.248;2023-09-19T09:29:09;4.20;;;1.30;;
20776;SDS011;10548;47.504;8.248;2023-09-19T09:31:36;2.57;;;1.20;;
20776;SDS011;10548;47.504;8.248;2023-09-19T09:34:04;4.80;;;2.03;;
20776;SDS011;10548;47.504;8.248;2023-09-19T09:36:36;3.43;;;1.40;;
20776;SDS011;10548;47.504;8.248;2023-09-19T09:39:05;2.90;;;1.50;;
20776;SDS011;10548;47.504;8.248;2023-09-19T09:41:45;3.47;;;1.57;;
20776;SDS011;10548;47.504;8.248;2023-09-19T09:44:18;3.30;;;1.70;;
20776;SDS011;10548;47.504;8.248;2023-09-19T09:46:46;2.90;;;1.47;;
20776;SDS011;10548;47.504;8.248;2023-09-19T09:49:40;2.97;;;1.57;;
20776;SDS011;10548;47.504;8.248;2023-09-19T09:52:21;2.20;;;1.30;;
20776;SDS011;10548;47.504;8.248;2023-09-19T09:54:58;3.07;;;1.50;;
20776;SDS011;10548;47.504;8.248;2023-09-19T09:57:27;5.13;;;1.43;;
20776;SDS011;10548;47.504;8.248;2023-09-19T09:59:57;4.10;;;1.53;;
20776;SDS011;10548;47.504;8.248;2023-09-19T10:02:26;3.87;;;1.43;;
20776;SDS011;10548;47.504;8.248;2023-09-19T10:05:13;1.57;;;1.10;;
20776;SDS011;10548;47.504;8.248;2023-09-19T10:07:55;3.60;;;1.40;;
20776;SDS011;10548;47.504;8.248;2023-09-19T10:10:34;3.30;;;1.50;;
20776;SDS011;10548;47.504;8.248;2023-09-19T10:13:23;3.83;;;1.40;;
20776;SDS011;10548;47.504;8.248;2023-09-19T10:15:55;4.57;;;1.47;;
20776;SDS011;10548;47.504;8.248;2023-09-19T10:18:25;3.37;;;1.37;;
20776;SDS011;10548;47.504;8.248;2023-09-19T10:20:56;3.20;;;1.70;;
20776;SDS011;10548;47.504;8.248;2023-09-19T10:23:24;6.30;;;1.53;;
20776;SDS011;10548;47.504;8.248;2023-09-19T10:25:55;2.63;;;1.50;;
20776;SDS011;10548;47.504;8.248;2023-09-19T10:28:27;2.37;;;1.53;;
20776;SDS011;10548;47.504;8.248;2023-09-19T10:30:57;1.97;;;1.47;;
20776;SDS011;10548;47.504;8.248;2023-09-19T10:33:25;3.93;;;1.40;;
20776;SDS011;10548;47.504;8.248;2023-09-19T10:35:53;4.07;;;1.60;;
20776;SDS011;10548;47.504;8.248;2023-09-19T10:39:11;3.23;;;1.37;;
20776;SDS011;10548;47.504;8.248;2023-09-19T10:41:41;4.53;;;1.40;;
20776;SDS011;10548;47.504;8.248;2023-09-19T10:44:08;4.30;;;1.50;;
20776;SDS011;10548;47.504;8.248;2023-09-19T10:46:36;4.97;;;1.60;;
20776;SDS011;10548;47.504;8.248;2023-09-19T10:49:05;3.43;;;1.50;;
20776;SDS011;10548;47.504;8.248;2023-09-19T10:51:37;4.83;;;1.70;;
20776;SDS011;10548;47.504;8.248;2023-09-19T10:54:08;3.10;;;1.23;;
20776;SDS011;10548;47.504;8.248;2023-09-19T10:56:43;3.50;;;1.70;;
20776;SDS011;10548;47.504;8.248;2023-09-19T10:59:15;5.40;;;1.63;;
20776;SDS011;10548;47.504;8.248;2023-09-19T11:01:48;4.17;;;1.47;;
20776;SDS011;10548;47.504;8.248;2023-09-19T11:04:30;1.83;;;1.27;;
20776;SDS011;10548;47.504;8.248;2023-09-19T11:07:06;3.83;;;1.40;;
20776;SDS011;10548;47.504;8.248;2023-09-19T11:09:53;6.10;;;1.40;;
20776;SDS011;10548;47.504;8.248;2023-09-19T11:27:13;3.33;;;1.70;;
20776;SDS011;10548;47.504;8.248;2023-09-19T11:29:43;3.50;;;1.43;;
20776;SDS011;10548;47.504;8.248;2023-09-19T11:32:11;3.37;;;1.43;;
20776;SDS011;10548;47.504;8.248;2023-09-19T11:34:40;7.00;;;1.73;;
20776;SDS011;10548;47.504;8.248;2023-09-19T11:40:18;3.63;;;1.50;;
20776;SDS011;10548;47.504;8.248;2023-09-19T11:42:46;2.97;;;1.50;;
20776;SDS011;10548;47.504;8.248;2023-09-19T11:48:29;3.37;;;1.40;;
20776;SDS011;10548;47.504;8.248;2023-09-19T11:50:58;5.87;;;1.57;;
20776;SDS011;10548;47.504;8.248;2023-09-19T11:53:30;3.10;;;1.40;;
20776;SDS011;10548;47.504;8.248;2023-09-19T11:55:59;2.23;;;1.20;;
20776;SDS011;10548;47.504;8.248;2023-09-19T11:58:27;3.20;;;1.57;;
20776;SDS011;10548;47.504;8.248;2023-09-19T12:00:56;2.97;;;1.50;;
20776;SDS011;10548;47.504;8.248;2023-09-19T12:03:28;5.53;;;1.50;;
20776;SDS011;10548;47.504;8.248;2023-09-19T12:05:57;1.97;;;1.20;;
20776;SDS011;10548;47.504;8.248;2023-09-19T12:08:25;3.13;;;1.67;;
20776;SDS011;10548;47.504;8.248;2023-09-19T12:10:54;7.93;;;1.67;;
20776;SDS011;10548;47.504;8.248;2023-09-19T12:13:24;2.33;;;1.47;;
20776;SDS011;10548;47.504;8.248;2023-09-19T12:15:52;3.00;;;1.40;;
20776;SDS011;10548;47.504;8.248;2023-09-19T12:18:26;4.13;;;1.43;;
20776;SDS011;10548;47.504;8.248;2023-09-19T12:20:56;4.43;;;1.33;;
20776;SDS011;10548;47.504;8.248;2023-09-19T12:23:24;2.60;;;1.30;;
20776;SDS011;10548;47.504;8.248;2023-09-19T12:25:54;4.43;;;1.23;;
20776;SDS011;10548;47.504;8.248;2023-09-19T12:28:27;3.47;;;1.30;;
20776;SDS011;10548;47.504;8.248;2023-09-19T12:31:07;5.53;;;1.70;;
20776;SDS011;10548;47.504;8.248;2023-09-19T12:33:35;2.17;;;1.17;;
20776;SDS011;10548;47.504;8.248;2023-09-19T12:36:19;5.07;;;1.47;;
20776;SDS011;10548;47.504;8.248;2023-09-19T12:38:52;2.10;;;1.20;;
20776;SDS011;10548;47.504;8.248;2023-09-19T12:41:19;2.70;;;1.50;;
20776;SDS011;10548;47.504;8.248;2023-09-19T12:43:48;8.10;;;1.40;;
20776;SDS011;10548;47.504;8.248;2023-09-19T12:46:19;3.63;;;1.83;;
20776;SDS011;10548;47.504;8.248;2023-09-19T12:51:44;4.73;;;1.30;;
20776;SDS011;10548;47.504;8.248;2023-09-19T12:54:14;2.50;;;1.60;;
20776;SDS011;10548;47.504;8.248;2023-09-19T12:56:43;2.90;;;1.33;;
20776;SDS011;10548;47.504;8.248;2023-09-19T12:59:12;2.13;;;1.30;;
20776;SDS011;10548;47.504;8.248;2023-09-19T13:01:40;2.07;;;1.03;;
20776;SDS011;10548;47.504;8.248;2023-09-19T13:04:12;2.07;;;1.47;;
20776;SDS011;10548;47.504;8.248;2023-09-19T13:06:48;2.43;;;1.50;;
20776;SDS011;10548;47.504;8.248;2023-09-19T13:09:17;2.53;;;1.30;;
20776;SDS011;10548;47.504;8.248;2023-09-19T13:11:47;3.53;;;1.73;;
20776;SDS011;10548;47.504;8.248;2023-09-19T13:14:21;2.67;;;1.20;;
20776;SDS011;10548;47.504;8.248;2023-09-19T13:17:06;4.60;;;1.30;;
20776;SDS011;10548;47.504;8.248;2023-09-19T13:19:47;7.07;;;1.83;;
20776;SDS011;10548;47.504;8.248;2023-09-19T13:25:13;2.20;;;1.37;;
20776;SDS011;10548;47.504;8.248;2023-09-19T13:27:48;3.73;;;1.50;;
20776;SDS011;10548;47.504;8.248;2023-09-19T13:30:21;7.97;;;1.57;;
20776;SDS011;10548;47.504;8.248;2023-09-19T13:32:52;3.87;;;1.50;;
20776;SDS011;10548;47.504;8.248;2023-09-19T13:35:32;3.27;;;1.30;;
20776;SDS011;10548;47.504;8.248;2023-09-19T13:37:59;9.97;;;1.67;;
20776;SDS011;10548;47.504;8.248;2023-09-19T13:40:27;3.03;;;1.10;;
20776;SDS011;10548;47.504;8.248;2023-09-19T13:42:59;6.83;;;1.30;;
20776;SDS011;10548;47.504;8.248;2023-09-19T13:45:26;2.77;;;1.23;;
20776;SDS011;10548;47.504;8.248;2023-09-19T13:47:57;13.80;;;1.70;;
20776;SDS011;10548;47.504;8.248;2023-09-19T13:50:25;5.03;;;1.50;;
20776;SDS011;10548;47.504;8.248;2023-09-19T13:52:55;1.60;;;1.30;;
20776;SDS011;10548;47.504;8.248;2023-09-19T13:55:24;2.00;;;1.10;;
20776;SDS011;10548;47.504;8.248;2023-09-19T13:57:51;2.67;;;1.30;;
20776;SDS011;10548;47.504;8.248;2023-09-19T14:00:22;2.27;;;1.10;;
20776;SDS011;10548;47.504;8.248;2023-09-19T14:02:49;4.20;;;1.43;;
20776;SDS011;10548;47.504;8.248;2023-09-19T14:05:18;3.23;;;1.53;;
20776;SDS011;10548;47.504;8.248;2023-09-19T14:07:47;3.73;;;1.30;;
20776;SDS011;10548;47.504;8.248;2023-09-19T14:10:15;2.47;;;1.20;;
20776;SDS011;10548;47.504;8.248;2023-09-19T14:12:44;1.83;;;1.20;;
20776;SDS011;10548;47.504;8.248;2023-09-19T14:15:12;2.07;;;1.13;;
20776;SDS011;10548;47.504;8.248;2023-09-19T14:17:39;3.20;;;1.60;;
20776;SDS011;10548;47.504;8.248;2023-09-19T14:20:12;3.33;;;1.20;;
20776;SDS011;10548;47.504;8.248;2023-09-19T14:22:40;5.23;;;1.50;;
20776;SDS011;10548;47.504;8.248;2023-09-19T14:25:08;2.50;;;1.33;;
20776;SDS011;10548;47.504;8.248;2023-09-19T14:27:35;2.37;;;1.07;;
20776;SDS011;10548;47.504;8.248;2023-09-19T14:30:03;2.03;;;1.33;;
20776;SDS011;10548;47.504;8.248;2023-09-19T14:32:30;1.93;;;1.13;;
20776;SDS011;10548;47.504;8.248;2023-09-19T14:34:58;2.90;;;1.20;;
20776;SDS011;10548;47.504;8.248;2023-09-19T14:37:25;1.40;;;1.10;;
20776;SDS011;10548;47.504;8.248;2023-09-19T14:39:54;1.67;;;1.03;;
20776;SDS011;10548;47.504;8.248;2023-09-19T14:42:22;4.70;;;1.43;;
20776;SDS011;10548;47.504;8.248;2023-09-19T14:44:49;2.07;;;1.20;;
20776;SDS011;10548;47.504;8.248;2023-09-19T14:47:16;4.07;;;1.40;;
20776;SDS011;10548;47.504;8.248;2023-09-19T14:49:44;3.07;;;1.30;;
20776;SDS011;10548;47.504;8.248;2023-09-19T14:52:11;3.23;;;1.23;;
20776;SDS011;10548;47.504;8.248;2023-09-19T14:54:42;2.70;;;1.20;;
20776;SDS011;10548;47.504;8.248;2023-09-19T14:57:09;5.07;;;1.30;;
20776;SDS011;10548;47.504;8.248;2023-09-19T14:59:37;3.20;;;1.00;;
20776;SDS011;10548;47.504;8.248;2023-09-19T15:02:04;1.83;;;1.30;;
20776;SDS011;10548;47.504;8.248;2023-09-19T15:04:32;2.60;;;1.07;;
20776;SDS011;10548;47.504;8.248;2023-09-19T15:07:00;3.23;;;1.23;;
20776;SDS011;10548;47.504;8.248;2023-09-19T15:09:29;1.67;;;1.00;;
20776;SDS011;10548;47.504;8.248;2023-09-19T15:11:58;3.07;;;1.50;;
20776;SDS011;10548;47.504;8.248;2023-09-19T15:14:25;4.53;;;1.33;;
20776;SDS011;10548;47.504;8.248;2023-09-19T15:16:53;2.63;;;1.10;;
20776;SDS011;10548;47.504;8.248;2023-09-19T15:19:21;2.83;;;1.40;;
20776;SDS011;10548;47.504;8.248;2023-09-19T15:21:49;2.30;;;1.30;;
20776;SDS011;10548;47.504;8.248;2023-09-19T15:24:16;1.43;;;0.97;;
20776;SDS011;10548;47.504;8.248;2023-09-19T15:26:44;7.37;;;1.10;;
20776;SDS011;10548;47.504;8.248;2023-09-19T15:29:12;3.23;;;1.53;;
20776;SDS011;10548;47.504;8.248;2023-09-19T15:31:40;4.13;;;1.40;;
20776;SDS011;10548;47.504;8.248;2023-09-19T15:34:07;7.87;;;1.20;;
20776;SDS011;10548;47.504;8.248;2023-09-19T15:36:35;2.42;;;1.08;;
20776;SDS011;10548;47.504;8.248;2023-09-19T15:39:06;2.28;;;1.20;;
20776;SDS011;10548;47.504;8.248;2023-09-19T15:41:36;3.33;;;1.10;;
20776;SDS011;10548;47.504;8.248;2023-09-19T15:44:04;1.70;;;1.20;;
20776;SDS011;10548;47.504;8.248;2023-09-19T15:46:37;2.83;;;1.37;;
20776;SDS011;10548;47.504;8.248;2023-09-19T15:49:04;1.90;;;1.23;;
20776;SDS011;10548;47.504;8.248;2023-09-19T15:51:32;2.87;;;1.10;;